sensor_id;sensor_type;location;lat;lon;timestamp;pressure;altitude;pressure_sealevel;temperature;humidity
77517;BME280;68414;53.946;27.634;2023-05-10T00:00:54;99959.218750;;;10.070000;36.645508
77517;BME280;68414;53.946;27.634;2023-05-10T00:01:54;99949.835938;;;10.080000;36.701172
77517;BME280;68414;53.946;27.634;2023-05-10T00:02:54;99960.250000;;;10.110000;37.020508
77517;BME280;68414;53.946;27.634;2023-05-10T00:03:54;99951.953125;;;10.030000;36.554688
77517;BME280;68414;53.946;27.634;2023-05-10T00:04:54;99954.187500;;;10.010000;37.087891
77517;BME280;68414;53.946;27.634;2023-05-10T00:05:54;99956.312500;;;9.950000;37.771484
77517;BME280;68414;53.946;27.634;2023-05-10T00:06:54;99955.984375;;;10.050000;38.075195
77517;BME280;68414;53.946;27.634;2023-05-10T00:07:54;99960.703125;;;10.050000;37.397461
77517;BME280;68414;53.946;27.634;2023-05-10T00:08:54;99961.335938;;;10.100000;36.660156
77517;BME280;68414;53.946;27.634;2023-05-10T00:09:54;99958.125000;;;10.170000;36.511719
77517;BME280;68414;53.946;27.634;2023-05-10T00:10:54;99956.007812;;;10.140000;36.312500
77517;BME280;68414;53.946;27.634;2023-05-10T00:11:54;99957.460938;;;10.030000;37.833008
77517;BME280;68414;53.946;27.634;2023-05-10T00:12:54;99955.343750;;;10.080000;37.149414
77517;BME280;68414;53.946;27.634;2023-05-10T00:13:54;99961.218750;;;10.150000;37.243164
77517;BME280;68414;53.946;27.634;2023-05-10T00:14:56;99956.335938;;;10.210000;37.509766
77517;BME280;68414;53.946;27.634;2023-05-10T00:15:54;99956.156250;;;10.000000;38.235352
77517;BME280;68414;53.946;27.634;2023-05-10T00:16:54;99959.062500;;;9.860000;37.327148
77517;BME280;68414;53.946;27.634;2023-05-10T00:17:54;99951.625000;;;9.960000;36.811523
77517;BME280;68414;53.946;27.634;2023-05-10T00:18:54;99959.218750;;;9.900000;37.012695
77517;BME280;68414;53.946;27.634;2023-05-10T00:19:54;99953.703125;;;9.900000;37.166016
77517;BME280;68414;53.946;27.634;2023-05-10T00:20:54;99958.429688;;;9.890000;37.755859
77517;BME280;68414;53.946;27.634;2023-05-10T00:21:54;99947.898438;;;9.910000;36.950195
77517;BME280;68414;53.946;27.634;2023-05-10T00:22:54;99956.640625;;;9.850000;37.172852
77517;BME280;68414;53.946;27.634;2023-05-10T00:23:54;99956.296875;;;9.780000;36.959961
77517;BME280;68414;53.946;27.634;2023-05-10T00:24:54;99954.179688;;;9.750000;37.154297
77517;BME280;68414;53.946;27.634;2023-05-10T00:25:54;99955.812500;;;9.760000;37.841797
77517;BME280;68414;53.946;27.634;2023-05-10T00:26:54;99953.062500;;;9.760000;38.497070
77517;BME280;68414;53.946;27.634;2023-05-10T00:27:54;99957.109375;;;9.700000;37.509766
77517;BME280;68414;53.946;27.634;2023-05-10T00:28:54;99959.046875;;;9.690000;37.913086
77517;BME280;68414;53.946;27.634;2023-05-10T00:29:54;99961.804688;;;9.780000;38.586914
77517;BME280;68414;53.946;27.634;2023-05-10T00:30:54;99962.148438;;;9.850000;38.144531
77517;BME280;68414;53.946;27.634;2023-05-10T00:31:54;99955.968750;;;9.880000;37.721680
77517;BME280;68414;53.946;27.634;2023-05-10T00:32:54;99955.812500;;;9.760000;37.590820
77517;BME280;68414;53.946;27.634;2023-05-10T00:33:54;99953.890625;;;9.850000;38.690430
77517;BME280;68414;53.946;27.634;2023-05-10T00:34:54;99958.726562;;;9.880000;39.686523
77517;BME280;68414;53.946;27.634;2023-05-10T00:35:54;99958.578125;;;9.930000;38.523438
77517;BME280;68414;53.946;27.634;2023-05-10T00:36:55;99947.421875;;;9.980000;39.074219
77517;BME280;68414;53.946;27.634;2023-05-10T00:37:54;99956.796875;;;9.970000;38.591797
77517;BME280;68414;53.946;27.634;2023-05-10T00:38:54;99957.281250;;;9.990000;38.572266
77517;BME280;68414;53.946;27.634;2023-05-10T00:39:54;99959.703125;;;10.010000;38.791992
77517;BME280;68414;53.946;27.634;2023-05-10T00:40:54;99953.226562;;;9.970000;38.625000
77517;BME280;68414;53.946;27.634;2023-05-10T00:41:54;99952.921875;;;9.980000;39.652344
77517;BME280;68414;53.946;27.634;2023-05-10T00:42:56;99961.335938;;;10.020000;39.764648
77517;BME280;68414;53.946;27.634;2023-05-10T00:43:54;99951.140625;;;10.020000;39.470703
77517;BME280;68414;53.946;27.634;2023-05-10T00:44:54;99961.484375;;;9.880000;39.598633
77517;BME280;68414;53.946;27.634;2023-05-10T00:45:54;99961.812500;;;9.860000;39.335938
77517;BME280;68414;53.946;27.634;2023-05-10T00:46:54;99953.890625;;;9.850000;39.083008
77517;BME280;68414;53.946;27.634;2023-05-10T00:47:54;99962.937500;;;9.850000;38.790039
77517;BME280;68414;53.946;27.634;2023-05-10T00:48:55;99955.968750;;;9.880000;39.216797
77517;BME280;68414;53.946;27.634;2023-05-10T00:49:54;99958.250000;;;9.860000;39.313477
77517;BME280;68414;53.946;27.634;2023-05-10T00:50:55;99954.187500;;;9.830000;39.191406
77517;BME280;68414;53.946;27.634;2023-05-10T00:51:54;99961.125000;;;9.640000;40.319336
77517;BME280;68414;53.946;27.634;2023-05-10T00:52:54;99963.875000;;;9.640000;39.370117
77517;BME280;68414;53.946;27.634;2023-05-10T00:53:54;99953.656250;;;9.470000;39.497070
77517;BME280;68414;53.946;27.634;2023-05-10T00:54:54;99953.468750;;;9.350000;40.270508
77517;BME280;68414;53.946;27.634;2023-05-10T00:55:55;99957.500000;;;9.380000;40.959961
77517;BME280;68414;53.946;27.634;2023-05-10T00:56:54;99961.750000;;;9.440000;39.853516
77517;BME280;68414;53.946;27.634;2023-05-10T00:57:54;99959.968750;;;9.480000;39.573242
77517;BME280;68414;53.946;27.634;2023-05-10T00:58:54;99965.804688;;;9.460000;39.452148
77517;BME280;68414;53.946;27.634;2023-05-10T00:59:54;99962.531250;;;9.440000;39.842773
77517;BME280;68414;53.946;27.634;2023-05-10T01:00:55;99963.351562;;;9.450000;39.647461
77517;BME280;68414;53.946;27.634;2023-05-10T01:01:55;99962.234375;;;9.460000;39.636719
77517;BME280;68414;53.946;27.634;2023-05-10T01:02:54;99963.351562;;;9.450000;39.724609
77517;BME280;68414;53.946;27.634;2023-05-10T01:03:55;99959.296875;;;9.420000;39.863281
77517;BME280;68414;53.946;27.634;2023-05-10T01:04:54;99959.000000;;;9.440000;40.049805
77517;BME280;68414;53.946;27.634;2023-05-10T01:05:54;99959.625000;;;9.410000;39.109375
77517;BME280;68414;53.946;27.634;2023-05-10T01:06:54;99958.156250;;;9.350000;39.397461
77517;BME280;68414;53.946;27.634;2023-05-10T01:07:54;99954.921875;;;9.330000;39.548828
77517;BME280;68414;53.946;27.634;2023-05-10T01:08:54;99960.906250;;;9.350000;39.724609
77517;BME280;68414;53.946;27.634;2023-05-10T01:09:56;99957.500000;;;9.380000;39.663086
77517;BME280;68414;53.946;27.634;2023-05-10T01:10:54;99956.382812;;;9.390000;39.652344
77517;BME280;68414;53.946;27.634;2023-05-10T01:11:54;99964.312500;;;9.400000;39.894531
77517;BME280;68414;53.946;27.634;2023-05-10T01:12:54;99956.843750;;;9.320000;40.540039
77517;BME280;68414;53.946;27.634;2023-05-10T01:13:55;99958.000000;;;9.310000;39.406250
77517;BME280;68414;53.946;27.634;2023-05-10T01:14:54;99958.296875;;;9.300000;40.461914
77517;BME280;68414;53.946;27.634;2023-05-10T01:15:54;99952.875000;;;9.070000;39.951172
77517;BME280;68414;53.946;27.634;2023-05-10T01:16:54;99957.250000;;;9.080000;40.974609
77517;BME280;68414;53.946;27.634;2023-05-10T01:17:54;99955.781250;;;9.020000;40.806641
77517;BME280;68414;53.946;27.634;2023-05-10T01:18:54;99954.343750;;;9.050000;40.634766
77517;BME280;68414;53.946;27.634;2023-05-10T01:19:54;99951.890625;;;9.030000;41.275391
77517;BME280;68414;53.946;27.634;2023-05-10T01:20:59;99957.343750;;;8.950000;43.171875
77517;BME280;68414;53.946;27.634;2023-05-10T01:33:56;99960.554688;;;8.880000;43.458984
77517;BME280;68414;53.946;27.634;2023-05-10T01:38:57;99951.359375;;;8.620000;43.769531
77517;BME280;68414;53.946;27.634;2023-05-10T01:40:00;99953.273438;;;8.530000;44.552734
77517;BME280;68414;53.946;27.634;2023-05-10T01:41:55;99939.234375;;;8.320000;45.150391
77517;BME280;68414;53.946;27.634;2023-05-10T01:42:58;99946.210938;;;8.380000;44.733398
77517;BME280;68414;53.946;27.634;2023-05-10T01:48:55;99946.156250;;;8.300000;45.083008
77517;BME280;68414;53.946;27.634;2023-05-10T01:49:55;99939.468750;;;8.220000;45.856445
77517;BME280;68414;53.946;27.634;2023-05-10T01:50:54;99941.695312;;;7.980000;46.220703
77517;BME280;68414;53.946;27.634;2023-05-10T01:51:56;99936.492188;;;7.750000;46.640625
77517;BME280;68414;53.946;27.634;2023-05-10T01:52:55;99934.492188;;;7.670000;47.368164
77517;BME280;68414;53.946;27.634;2023-05-10T01:53:58;99940.187500;;;7.560000;47.432617
77517;BME280;68414;53.946;27.634;2023-05-10T01:55:55;99943.171875;;;7.330000;47.742188
77517;BME280;68414;53.946;27.634;2023-05-10T01:58:00;99939.640625;;;7.190000;48.279297
77517;BME280;68414;53.946;27.634;2023-05-10T01:58:55;99940.335938;;;7.240000;48.003906
77517;BME280;68414;53.946;27.634;2023-05-10T01:59:54;99945.312500;;;7.090000;49.078125
77517;BME280;68414;53.946;27.634;2023-05-10T02:00:54;99944.085938;;;7.280000;49.349609
77517;BME280;68414;53.946;27.634;2023-05-10T02:01:54;99949.750000;;;7.450000;48.341797
77517;BME280;68414;53.946;27.634;2023-05-10T02:02:54;99945.671875;;;7.560000;47.443359
77517;BME280;68414;53.946;27.634;2023-05-10T02:03:54;99939.156250;;;7.660000;46.869141
77517;BME280;68414;53.946;27.634;2023-05-10T02:04:54;99939.234375;;;7.750000;46.770508
77517;BME280;68414;53.946;27.634;2023-05-10T02:05:54;99933.328125;;;7.810000;46.798828
77517;BME280;68414;53.946;27.634;2023-05-10T02:06:54;99936.492188;;;7.750000;47.182617
77517;BME280;68414;53.946;27.634;2023-05-10T02:07:54;99934.359375;;;7.720000;47.276367
77517;BME280;68414;53.946;27.634;2023-05-10T02:08:54;99940.406250;;;7.600000;47.566406
77517;BME280;68414;53.946;27.634;2023-05-10T02:09:54;99933.375000;;;7.540000;48.111328
77517;BME280;68414;53.946;27.634;2023-05-10T02:10:55;99939.195312;;;7.390000;48.853516
77517;BME280;68414;53.946;27.634;2023-05-10T02:11:54;99940.015625;;;7.390000;48.561523
77517;BME280;68414;53.946;27.634;2023-05-10T02:12:54;99936.171875;;;7.270000;49.672852
77517;BME280;68414;53.946;27.634;2023-05-10T02:13:54;99940.335938;;;7.240000;49.734375
77517;BME280;68414;53.946;27.634;2023-05-10T02:14:54;99938.000000;;;7.310000;49.861328
77517;BME280;68414;53.946;27.634;2023-05-10T02:15:54;99940.937500;;;7.210000;50.259766
77517;BME280;68414;53.946;27.634;2023-05-10T02:16:54;99942.062500;;;7.340000;49.983398
77517;BME280;68414;53.946;27.634;2023-05-10T02:17:55;99945.398438;;;7.440000;49.226562
77517;BME280;68414;53.946;27.634;2023-05-10T02:18:54;99935.937500;;;7.500000;48.844727
77517;BME280;68414;53.946;27.634;2023-05-10T02:19:54;99934.703125;;;7.560000;48.905273
77517;BME280;68414;53.946;27.634;2023-05-10T02:20:54;99933.453125;;;7.620000;48.403320
77517;BME280;68414;53.946;27.634;2023-05-10T02:21:55;99938.765625;;;7.590000;48.724609
77517;BME280;68414;53.946;27.634;2023-05-10T02:22:55;99937.546875;;;7.510000;49.289062
77517;BME280;68414;53.946;27.634;2023-05-10T02:23:54;99939.187500;;;7.520000;49.019531
77517;BME280;68414;53.946;27.634;2023-05-10T02:24:55;99938.179688;;;7.480000;49.232422
77517;BME280;68414;53.946;27.634;2023-05-10T02:25:54;99934.429688;;;7.440000;49.388672
77517;BME280;68414;53.946;27.634;2023-05-10T02:26:54;99935.250000;;;7.450000;49.346680
77517;BME280;68414;53.946;27.634;2023-05-10T02:27:55;99941.515625;;;7.450000;49.867188
77517;BME280;68414;53.946;27.634;2023-05-10T02:28:54;99942.343750;;;7.460000;49.662109
77517;BME280;68414;53.946;27.634;2023-05-10T02:29:54;99948.640625;;;7.460000;49.749023
77517;BME280;68414;53.946;27.634;2023-05-10T02:30:54;99940.921875;;;7.480000;49.784180
77517;BME280;68414;53.946;27.634;2023-05-10T02:31:54;99943.031250;;;7.510000;49.538086
77517;BME280;68414;53.946;27.634;2023-05-10T02:32:54;99943.843750;;;7.520000;49.711914
77517;BME280;68414;53.946;27.634;2023-05-10T02:33:54;99941.320312;;;7.550000;49.706055
77517;BME280;68414;53.946;27.634;2023-05-10T02:34:54;99941.187500;;;7.600000;49.765625
77517;BME280;68414;53.946;27.634;2023-05-10T02:35:54;99941.687500;;;7.620000;50.125000
77517;BME280;68414;53.946;27.634;2023-05-10T02:36:55;99949.914062;;;7.620000;50.135742
77517;BME280;68414;53.946;27.634;2023-05-10T02:37:54;99946.070312;;;7.630000;50.288086
77517;BME280;68414;53.946;27.634;2023-05-10T02:38:54;99957.140625;;;7.580000;50.974609
77517;BME280;68414;53.946;27.634;2023-05-10T02:39:55;99946.593750;;;7.520000;50.630859
77517;BME280;68414;53.946;27.634;2023-05-10T02:40:54;99949.875000;;;7.400000;51.407227
77517;BME280;68414;53.946;27.634;2023-05-10T02:41:54;99952.812500;;;7.300000;51.287109
77517;BME280;68414;53.946;27.634;2023-05-10T02:42:54;99951.390625;;;7.190000;52.635742
77517;BME280;68414;53.946;27.634;2023-05-10T02:43:55;99950.796875;;;7.220000;52.812500
77517;BME280;68414;53.946;27.634;2023-05-10T02:44:56;99951.390625;;;7.330000;52.003906
77517;BME280;68414;53.946;27.634;2023-05-10T02:45:54;99947.734375;;;7.370000;51.814453
77517;BME280;68414;53.946;27.634;2023-05-10T02:46:54;99950.203125;;;7.250000;52.178711
77517;BME280;68414;53.946;27.634;2023-05-10T02:47:54;99948.843750;;;7.360000;51.975586
77517;BME280;68414;53.946;27.634;2023-05-10T02:48:54;99951.796875;;;7.400000;51.687500
77517;BME280;68414;53.946;27.634;2023-05-10T02:49:54;99951.984375;;;7.430000;51.368164
77517;BME280;68414;53.946;27.634;2023-05-10T02:50:54;99947.234375;;;7.350000;51.141602
77517;BME280;68414;53.946;27.634;2023-05-10T02:51:56;99952.218750;;;7.330000;51.247070
77517;BME280;68414;53.946;27.634;2023-05-10T02:52:55;99945.312500;;;7.360000;50.807617
77517;BME280;68414;53.946;27.634;2023-05-10T02:53:54;99949.468750;;;7.330000;50.404297
77517;BME280;68414;53.946;27.634;2023-05-10T02:54:55;99949.570312;;;7.280000;50.733398
77517;BME280;68414;53.946;27.634;2023-05-10T02:55:54;99946.515625;;;7.300000;50.811523
77517;BME280;68414;53.946;27.634;2023-05-10T02:56:56;99949.156250;;;7.350000;50.178711
77517;BME280;68414;53.946;27.634;2023-05-10T02:57:56;99946.820312;;;7.420000;49.105469
77517;BME280;68414;53.946;27.634;2023-05-10T02:58:54;99942.437500;;;7.410000;49.212891
77517;BME280;68414;53.946;27.634;2023-05-10T02:59:54;99945.906250;;;7.330000;50.079102
77517;BME280;68414;53.946;27.634;2023-05-10T03:00:54;99944.679688;;;7.390000;49.794922
77517;BME280;68414;53.946;27.634;2023-05-10T03:01:54;99938.000000;;;7.310000;49.947266
77517;BME280;68414;53.946;27.634;2023-05-10T03:02:54;99940.609375;;;7.360000;50.083984
77517;BME280;68414;53.946;27.634;2023-05-10T03:03:54;99939.515625;;;7.370000;50.690430
77517;BME280;68414;53.946;27.634;2023-05-10T03:04:54;99934.718750;;;7.430000;51.183594
77517;BME280;68414;53.946;27.634;2023-05-10T03:05:54;99940.601562;;;7.500000;50.520508
77517;BME280;68414;53.946;27.634;2023-05-10T03:06:54;99948.914062;;;7.580000;49.762695
77517;BME280;68414;53.946;27.634;2023-05-10T03:07:54;99946.070312;;;7.630000;49.314453
77517;BME280;68414;53.946;27.634;2023-05-10T03:08:54;99940.156250;;;7.700000;48.412109
77517;BME280;68414;53.946;27.634;2023-05-10T03:09:54;99949.210938;;;7.710000;49.289062
77517;BME280;68414;53.946;27.634;2023-05-10T03:13:02;99948.328125;;;7.480000;50.226562
77517;BME280;68414;53.946;27.634;2023-05-10T03:18:55;99947.726562;;;7.510000;50.187500
77517;BME280;68414;53.946;27.634;2023-05-10T03:21:54;99950.210938;;;7.750000;50.453125
77517;BME280;68414;53.946;27.634;2023-05-10T03:23:59;99945.039062;;;7.730000;50.526367
77517;BME280;68414;53.946;27.634;2023-05-10T03:24:55;99947.781250;;;7.730000;50.202148
77517;BME280;68414;53.946;27.634;2023-05-10T03:25:54;99950.078125;;;7.800000;50.100586
77517;BME280;68414;53.946;27.634;2023-05-10T03:26:55;99945.976562;;;7.910000;50.623047
77517;BME280;68414;53.946;27.634;2023-05-10T03:27:54;99946.046875;;;7.990000;50.264648
77517;BME280;68414;53.946;27.634;2023-05-10T03:28:55;99951.703125;;;8.160000;49.375000
77517;BME280;68414;53.946;27.634;2023-05-10T03:29:54;99950.531250;;;8.310000;48.967773
77517;BME280;68414;53.946;27.634;2023-05-10T03:30:54;99951.265625;;;8.450000;48.832031
77517;BME280;68414;53.946;27.634;2023-05-10T03:31:54;99956.140625;;;8.480000;48.542969
77517;BME280;68414;53.946;27.634;2023-05-10T03:32:54;99948.562500;;;8.540000;48.864258
77517;BME280;68414;53.946;27.634;2023-05-10T03:33:54;99951.757812;;;8.470000;48.887695
77517;BME280;68414;53.946;27.634;2023-05-10T03:34:54;99955.492188;;;8.510000;48.708984
77517;BME280;68414;53.946;27.634;2023-05-10T03:35:54;99950.328125;;;8.500000;48.392578
77517;BME280;68414;53.946;27.634;2023-05-10T03:36:54;99952.671875;;;8.650000;47.768555
77517;BME280;68414;53.946;27.634;2023-05-10T03:37:54;99947.718750;;;8.750000;47.779297
77517;BME280;68414;53.946;27.634;2023-05-10T03:38:54;99950.375000;;;8.890000;47.219727
77517;BME280;68414;53.946;27.634;2023-05-10T03:39:54;99949.296875;;;8.980000;46.523438
77517;BME280;68414;53.946;27.634;2023-05-10T03:40:54;99956.140625;;;9.090000;46.144531
77517;BME280;68414;53.946;27.634;2023-05-10T03:41:54;99957.609375;;;9.150000;45.900391
77517;BME280;68414;53.946;27.634;2023-05-10T03:42:54;99957.640625;;;9.240000;45.997070
77517;BME280;68414;53.946;27.634;2023-05-10T03:43:54;99950.859375;;;9.300000;44.654297
77517;BME280;68414;53.946;27.634;2023-05-10T03:44:54;99952.812500;;;9.380000;45.250000
77517;BME280;68414;53.946;27.634;2023-05-10T03:45:54;99948.148438;;;9.470000;45.270508
77517;BME280;68414;53.946;27.634;2023-05-10T03:46:54;99953.671875;;;9.560000;44.321289
77517;BME280;68414;53.946;27.634;2023-05-10T03:47:54;99956.765625;;;9.630000;43.326172
77517;BME280;68414;53.946;27.634;2023-05-10T03:48:54;99948.031250;;;9.690000;45.217773
77517;BME280;68414;53.946;27.634;2023-05-10T03:49:54;99956.296875;;;9.780000;45.204102
77517;BME280;68414;53.946;27.634;2023-05-10T03:50:54;99951.921875;;;9.850000;45.146484
77517;BME280;68414;53.946;27.634;2023-05-10T03:51:54;99943.187500;;;9.920000;43.900391
77517;BME280;68414;53.946;27.634;2023-05-10T03:52:54;99949.500000;;;10.010000;43.691406
77517;BME280;68414;53.946;27.634;2023-05-10T03:53:54;99950.656250;;;10.090000;44.003906
77517;BME280;68414;53.946;27.634;2023-05-10T03:54:54;99944.359375;;;10.170000;42.299805
77517;BME280;68414;53.946;27.634;2023-05-10T03:55:54;99948.078125;;;10.120000;42.972656
77517;BME280;68414;53.946;27.634;2023-05-10T03:56:54;99941.593750;;;10.250000;42.809570
77517;BME280;68414;53.946;27.634;2023-05-10T03:57:54;99947.750000;;;10.390000;44.111328
77517;BME280;68414;53.946;27.634;2023-05-10T03:58:54;99948.843750;;;10.550000;43.200195
77517;BME280;68414;53.946;27.634;2023-05-10T03:59:54;99951.382812;;;10.780000;43.309570
77517;BME280;68414;53.946;27.634;2023-05-10T04:00:54;99948.484375;;;10.740000;41.601562
77517;BME280;68414;53.946;27.634;2023-05-10T04:01:54;99950.093750;;;10.750000;44.039062
77517;BME280;68414;53.946;27.634;2023-05-10T04:02:54;99948.281250;;;10.790000;45.046875
77517;BME280;68414;53.946;27.634;2023-05-10T04:03:54;99949.546875;;;10.900000;43.354492
77517;BME280;68414;53.946;27.634;2023-05-10T04:04:54;99944.039062;;;10.900000;41.212891
77517;BME280;68414;53.946;27.634;2023-05-10T04:06:54;99945.187500;;;10.810000;39.552734
77517;BME280;68414;53.946;27.634;2023-05-10T04:07:55;99945.562500;;;10.710000;41.074219
77517;BME280;68414;53.946;27.634;2023-05-10T04:08:54;99941.718750;;;10.540000;41.167969
77517;BME280;68414;53.946;27.634;2023-05-10T04:09:54;99942.773438;;;10.790000;41.934570
77517;BME280;68414;53.946;27.634;2023-05-10T04:10:54;99940.867188;;;11.090000;40.059570
77517;BME280;68414;53.946;27.634;2023-05-10T04:11:54;99945.125000;;;11.350000;39.219727
77517;BME280;68414;53.946;27.634;2023-05-10T04:12:54;99940.500000;;;11.480000;39.570312
77517;BME280;68414;53.946;27.634;2023-05-10T04:13:54;99945.445312;;;11.630000;38.388672
77517;BME280;68414;53.946;27.634;2023-05-10T04:14:54;99950.421875;;;11.490000;40.118164
77517;BME280;68414;53.946;27.634;2023-05-10T04:15:54;99950.015625;;;11.590000;40.708008
77517;BME280;68414;53.946;27.634;2023-05-10T04:16:54;99947.546875;;;11.660000;40.222656
77517;BME280;68414;53.946;27.634;2023-05-10T04:17:54;99949.812500;;;11.730000;39.143555
77517;BME280;68414;53.946;27.634;2023-05-10T04:18:54;99945.890625;;;11.740000;37.280273
77517;BME280;68414;53.946;27.634;2023-05-10T04:19:54;99951.562500;;;11.770000;37.348633
77517;BME280;68414;53.946;27.634;2023-05-10T04:20:54;99955.078125;;;11.860000;37.630859
77517;BME280;68414;53.946;27.634;2023-05-10T04:21:54;99952.757812;;;11.680000;38.239258
77517;BME280;68414;53.946;27.634;2023-05-10T04:22:54;99958.937500;;;11.650000;38.741211
77517;BME280;68414;53.946;27.634;2023-05-10T04:23:54;99952.226562;;;11.740000;38.750000
77517;BME280;68414;53.946;27.634;2023-05-10T04:24:54;99950.750000;;;11.770000;37.820312
77517;BME280;68414;53.946;27.634;2023-05-10T04:26:54;99957.906250;;;11.780000;36.471680
77517;BME280;68414;53.946;27.634;2023-05-10T04:27:54;99958.437500;;;11.710000;36.509766
77517;BME280;68414;53.946;27.634;2023-05-10T04:28:54;99958.312500;;;11.880000;34.680664
77517;BME280;68414;53.946;27.634;2023-05-10T04:29:54;99952.101562;;;11.910000;34.221680
77517;BME280;68414;53.946;27.634;2023-05-10T04:31:00;99944.093750;;;11.980000;33.744141
77517;BME280;68414;53.946;27.634;2023-05-10T04:31:54;99945.328125;;;11.890000;33.714844
77517;BME280;68414;53.946;27.634;2023-05-10T04:32:54;99946.578125;;;11.910000;33.627930
77517;BME280;68414;53.946;27.634;2023-05-10T04:33:54;99946.312500;;;12.050000;34.023438
77517;BME280;68414;53.946;27.634;2023-05-10T04:34:54;99963.687500;;;11.850000;34.732422
77517;BME280;68414;53.946;27.634;2023-05-10T04:35:54;99957.437500;;;11.960000;34.028320
77517;BME280;68414;53.946;27.634;2023-05-10T04:36:54;99960.406250;;;11.620000;34.912109
77517;BME280;68414;53.946;27.634;2023-05-10T04:37:54;99964.296875;;;11.610000;36.315430
77517;BME280;68414;53.946;27.634;2023-05-10T04:38:54;99964.906250;;;11.750000;35.382812
77517;BME280;68414;53.946;27.634;2023-05-10T04:39:54;99962.898438;;;11.840000;34.468750
77517;BME280;68414;53.946;27.634;2023-05-10T04:40:54;99955.929688;;;11.780000;34.771484
77517;BME280;68414;53.946;27.634;2023-05-10T04:41:54;99950.218750;;;11.830000;35.104492
77517;BME280;68414;53.946;27.634;2023-05-10T04:42:54;99958.562500;;;11.950000;34.994141
77517;BME280;68414;53.946;27.634;2023-05-10T04:43:54;99966.375000;;;11.930000;34.167969
77517;BME280;68414;53.946;27.634;2023-05-10T04:44:54;99957.968750;;;11.900000;34.330078
77517;BME280;68414;53.946;27.634;2023-05-10T04:45:56;99958.773438;;;12.110000;33.820312
77517;BME280;68414;53.946;27.634;2023-05-10T04:46:54;99956.406250;;;12.220000;33.828125
77517;BME280;68414;53.946;27.634;2023-05-10T04:47:54;99955.273438;;;12.230000;34.861328
77517;BME280;68414;53.946;27.634;2023-05-10T04:48:54;99960.171875;;;12.380000;34.598633
77517;BME280;68414;53.946;27.634;2023-05-10T04:49:54;99962.562500;;;12.600000;33.681641
77517;BME280;68414;53.946;27.634;2023-05-10T04:50:54;99957.992188;;;12.760000;32.813477
77517;BME280;68414;53.946;27.634;2023-05-10T04:51:54;99961.468750;;;12.850000;32.952148
77517;BME280;68414;53.946;27.634;2023-05-10T04:52:54;99955.593750;;;12.860000;32.414062
77517;BME280;68414;53.946;27.634;2023-05-10T04:53:54;99955.593750;;;12.860000;33.503906
77517;BME280;68414;53.946;27.634;2023-05-10T04:54:54;99957.796875;;;12.930000;33.597656
77517;BME280;68414;53.946;27.634;2023-05-10T04:55:54;99963.640625;;;13.120000;33.809570
77517;BME280;68414;53.946;27.634;2023-05-10T04:56:54;99964.101562;;;13.260000;32.420898
77517;BME280;68414;53.946;27.634;2023-05-10T04:57:54;99957.429688;;;13.270000;32.432617
77517;BME280;68414;53.946;27.634;2023-05-10T04:58:54;99956.718750;;;13.300000;33.317383
77517;BME280;68414;53.946;27.634;2023-05-10T04:59:54;99953.593750;;;13.560000;31.826172
77517;BME280;68414;53.946;27.634;2023-05-10T05:00:54;99957.406250;;;13.510000;31.657227
77517;BME280;68414;53.946;27.634;2023-05-10T05:01:54;99958.234375;;;13.400000;32.123047
77517;BME280;68414;53.946;27.634;2023-05-10T05:02:54;99955.453125;;;13.640000;32.250000
77517;BME280;68414;53.946;27.634;2023-05-10T05:03:54;99954.976562;;;13.740000;31.276367
77517;BME280;68414;53.946;27.634;2023-05-10T05:04:55;99952.125000;;;13.460000;32.965820
77517;BME280;68414;53.946;27.634;2023-05-10T05:05:54;99961.000000;;;13.400000;32.244141
77517;BME280;68414;53.946;27.634;2023-05-10T05:06:54;99964.218750;;;13.660000;31.734375
77517;BME280;68414;53.946;27.634;2023-05-10T05:07:54;99961.781250;;;13.770000;32.370117
77517;BME280;68414;53.946;27.634;2023-05-10T05:08:54;99965.015625;;;13.790000;31.787109